sensor_id;sensor_type;location;lat;lon;timestamp;P1;durP1;ratioP1;P2;durP2;ratioP2
22973;SDS011;11653;50.848;4.584;2023-09-18T00:01:05;12.43;;;7.00;;
22973;SDS011;11653;50.848;4.584;2023-09-18T00:03:33;11.73;;;8.00;;
22973;SDS011;11653;50.848;4.584;2023-09-18T00:05:59;9.97;;;6.97;;
22973;SDS011;11653;50.848;4.584;2023-09-18T00:08:25;10.10;;;6.57;;
22973;SDS011;11653;50.848;4.584;2023-09-18T00:10:54;9.23;;;7.60;;
22973;SDS011;11653;50.848;4.584;2023-09-18T00:13:20;9.73;;;7.40;;
22973;SDS011;11653;50.848;4.584;2023-09-18T00:15:46;11.63;;;7.93;;
22973;SDS011;11653;50.848;4.584;2023-09-18T00:18:16;11.53;;;8.07;;
22973;SDS011;11653;50.848;4.584;2023-09-18T00:20:42;10.83;;;8.00;;
22973;SDS011;11653;50.848;4.584;2023-09-18T00:23:09;12.60;;;8.13;;
22973;SDS011;11653;50.848;4.584;2023-09-18T00:25:35;10.30;;;7.67;;
22973;SDS011;11653;50.848;4.584;2023-09-18T00:28:01;14.33;;;7.77;;
22973;SDS011;11653;50.848;4.584;2023-09-18T00:30:28;16.63;;;8.90;;
22973;SDS011;11653;50.848;4.584;2023-09-18T00:32:54;13.90;;;10.17;;
22973;SDS011;11653;50.848;4.584;2023-09-18T00:35:19;10.77;;;7.50;;
22973;SDS011;11653;50.848;4.584;2023-09-18T00:37:47;11.03;;;7.43;;
22973;SDS011;11653;50.848;4.584;2023-09-18T00:40:13;13.20;;;8.03;;
22973;SDS011;11653;50.848;4.584;2023-09-18T00:42:38;10.67;;;7.40;;
22973;SDS011;11653;50.848;4.584;2023-09-18T00:45:04;15.57;;;7.87;;
22973;SDS011;11653;50.848;4.584;2023-09-18T00:47:30;12.23;;;8.27;;
22973;SDS011;11653;50.848;4.584;2023-09-18T00:49:56;12.30;;;8.20;;
22973;SDS011;11653;50.848;4.584;2023-09-18T00:52:22;12.20;;;9.10;;
22973;SDS011;11653;50.848;4.584;2023-09-18T00:54:49;17.73;;;8.77;;
22973;SDS011;11653;50.848;4.584;2023-09-18T00:57:15;15.73;;;8.63;;
22973;SDS011;11653;50.848;4.584;2023-09-18T00:59:41;19.70;;;8.57;;
22973;SDS011;11653;50.848;4.584;2023-09-18T01:02:08;13.73;;;9.03;;
22973;SDS011;11653;50.848;4.584;2023-09-18T01:04:34;18.70;;;9.93;;
22973;SDS011;11653;50.848;4.584;2023-09-18T01:07:00;14.73;;;8.60;;
22973;SDS011;11653;50.848;4.584;2023-09-18T01:09:29;13.13;;;9.63;;
22973;SDS011;11653;50.848;4.584;2023-09-18T01:14:41;14.33;;;9.37;;
22973;SDS011;11653;50.848;4.584;2023-09-18T01:17:18;12.87;;;8.90;;
22973;SDS011;11653;50.848;4.584;2023-09-18T01:19:45;11.47;;;8.47;;
22973;SDS011;11653;50.848;4.584;2023-09-18T01:22:13;14.63;;;8.77;;
22973;SDS011;11653;50.848;4.584;2023-09-18T01:24:41;12.70;;;8.93;;
22973;SDS011;11653;50.848;4.584;2023-09-18T01:27:09;17.77;;;9.13;;
22973;SDS011;11653;50.848;4.584;2023-09-18T01:29:37;15.40;;;8.90;;
22973;SDS011;11653;50.848;4.584;2023-09-18T01:32:04;12.80;;;8.70;;
22973;SDS011;11653;50.848;4.584;2023-09-18T01:34:33;14.00;;;8.77;;
22973;SDS011;11653;50.848;4.584;2023-09-18T01:37:07;15.63;;;8.87;;
22973;SDS011;11653;50.848;4.584;2023-09-18T01:39:35;14.10;;;8.40;;
22973;SDS011;11653;50.848;4.584;2023-09-18T01:42:02;13.53;;;8.63;;
22973;SDS011;11653;50.848;4.584;2023-09-18T01:44:30;14.97;;;8.73;;
22973;SDS011;11653;50.848;4.584;2023-09-18T01:46:57;15.80;;;8.73;;
22973;SDS011;11653;50.848;4.584;2023-09-18T01:49:34;13.17;;;8.90;;
22973;SDS011;11653;50.848;4.584;2023-09-18T01:52:02;14.67;;;9.80;;
22973;SDS011;11653;50.848;4.584;2023-09-18T01:54:29;16.53;;;8.47;;
22973;SDS011;11653;50.848;4.584;2023-09-18T01:56:55;14.13;;;8.87;;
22973;SDS011;11653;50.848;4.584;2023-09-18T01:59:21;13.70;;;9.97;;
22973;SDS011;11653;50.848;4.584;2023-09-18T02:01:48;12.87;;;9.30;;
22973;SDS011;11653;50.848;4.584;2023-09-18T02:04:14;15.63;;;8.70;;
22973;SDS011;11653;50.848;4.584;2023-09-18T02:06:40;18.93;;;9.47;;
22973;SDS011;11653;50.848;4.584;2023-09-18T02:09:06;10.70;;;8.40;;
22973;SDS011;11653;50.848;4.584;2023-09-18T02:11:39;16.23;;;8.97;;
22973;SDS011;11653;50.848;4.584;2023-09-18T02:14:05;12.37;;;8.70;;
22973;SDS011;11653;50.848;4.584;2023-09-18T02:16:32;14.03;;;9.03;;
22973;SDS011;11653;50.848;4.584;2023-09-18T02:18:58;17.60;;;9.60;;
22973;SDS011;11653;50.848;4.584;2023-09-18T02:21:24;13.00;;;9.13;;
22973;SDS011;11653;50.848;4.584;2023-09-18T02:23:51;14.57;;;9.30;;
22973;SDS011;11653;50.848;4.584;2023-09-18T02:26:17;15.20;;;8.63;;
22973;SDS011;11653;50.848;4.584;2023-09-18T02:28:44;16.83;;;9.10;;
22973;SDS011;11653;50.848;4.584;2023-09-18T02:31:10;17.77;;;9.53;;
22973;SDS011;11653;50.848;4.584;2023-09-18T02:33:39;13.13;;;9.30;;
22973;SDS011;11653;50.848;4.584;2023-09-18T02:36:05;13.50;;;9.20;;
22973;SDS011;11653;50.848;4.584;2023-09-18T02:38:31;18.00;;;9.67;;
22973;SDS011;11653;50.848;4.584;2023-09-18T02:40:57;17.40;;;10.10;;
22973;SDS011;11653;50.848;4.584;2023-09-18T02:43:23;13.53;;;9.63;;
22973;SDS011;11653;50.848;4.584;2023-09-18T02:45:49;15.97;;;9.40;;
22973;SDS011;11653;50.848;4.584;2023-09-18T02:48:16;15.57;;;9.20;;
22973;SDS011;11653;50.848;4.584;2023-09-18T02:50:42;13.57;;;8.90;;
22973;SDS011;11653;50.848;4.584;2023-09-18T02:53:16;14.17;;;9.10;;
22973;SDS011;11653;50.848;4.584;2023-09-18T02:55:44;13.07;;;9.20;;
22973;SDS011;11653;50.848;4.584;2023-09-18T02:58:09;13.53;;;8.43;;
22973;SDS011;11653;50.848;4.584;2023-09-18T03:00:40;13.20;;;8.30;;
22973;SDS011;11653;50.848;4.584;2023-09-18T03:03:08;15.27;;;8.17;;
22973;SDS011;11653;50.848;4.584;2023-09-18T03:05:37;14.77;;;8.00;;
22973;SDS011;11653;50.848;4.584;2023-09-18T03:08:03;11.73;;;7.93;;
22973;SDS011;11653;50.848;4.584;2023-09-18T03:10:32;10.93;;;7.00;;
22973;SDS011;11653;50.848;4.584;2023-09-18T03:13:02;13.23;;;6.83;;
22973;SDS011;11653;50.848;4.584;2023-09-18T03:15:28;12.30;;;6.43;;
22973;SDS011;11653;50.848;4.584;2023-09-18T03:17:55;8.07;;;5.40;;
22973;SDS011;11653;50.848;4.584;2023-09-18T03:20:24;10.93;;;6.00;;
22973;SDS011;11653;50.848;4.584;2023-09-18T03:22:51;8.93;;;5.90;;
22973;SDS011;11653;50.848;4.584;2023-09-18T03:25:21;8.97;;;6.17;;
22973;SDS011;11653;50.848;4.584;2023-09-18T03:27:47;8.03;;;5.10;;
22973;SDS011;11653;50.848;4.584;2023-09-18T03:30:13;6.23;;;5.20;;
22973;SDS011;11653;50.848;4.584;2023-09-18T03:32:42;9.03;;;5.60;;
22973;SDS011;11653;50.848;4.584;2023-09-18T03:35:08;10.27;;;5.23;;
22973;SDS011;11653;50.848;4.584;2023-09-18T03:37:53;8.30;;;6.17;;
22973;SDS011;11653;50.848;4.584;2023-09-18T03:40:21;9.87;;;6.37;;
22973;SDS011;11653;50.848;4.584;2023-09-18T03:42:47;8.53;;;5.50;;
22973;SDS011;11653;50.848;4.584;2023-09-18T03:45:14;9.80;;;5.37;;
22973;SDS011;11653;50.848;4.584;2023-09-18T03:47:42;9.20;;;4.73;;
22973;SDS011;11653;50.848;4.584;2023-09-18T03:50:11;10.30;;;5.33;;
22973;SDS011;11653;50.848;4.584;2023-09-18T03:52:37;7.83;;;4.93;;
22973;SDS011;11653;50.848;4.584;2023-09-18T03:55:04;7.10;;;4.50;;
22973;SDS011;11653;50.848;4.584;2023-09-18T03:57:31;7.30;;;4.60;;
22973;SDS011;11653;50.848;4.584;2023-09-18T03:59:56;6.70;;;4.00;;
22973;SDS011;11653;50.848;4.584;2023-09-18T04:02:23;5.87;;;3.73;;
22973;SDS011;11653;50.848;4.584;2023-09-18T04:04:50;6.23;;;3.17;;
22973;SDS011;11653;50.848;4.584;2023-09-18T04:07:18;4.60;;;3.07;;
22973;SDS011;11653;50.848;4.584;2023-09-18T04:09:44;4.53;;;2.90;;
22973;SDS011;11653;50.848;4.584;2023-09-18T04:12:10;6.40;;;3.60;;
22973;SDS011;11653;50.848;4.584;2023-09-18T04:14:36;8.37;;;2.47;;
22973;SDS011;11653;50.848;4.584;2023-09-18T04:17:03;6.37;;;2.70;;
22973;SDS011;11653;50.848;4.584;2023-09-18T04:19:28;5.37;;;3.07;;
22973;SDS011;11653;50.848;4.584;2023-09-18T04:21:54;2.97;;;2.30;;
22973;SDS011;11653;50.848;4.584;2023-09-18T04:24:20;3.73;;;2.23;;
22973;SDS011;11653;50.848;4.584;2023-09-18T04:26:46;3.77;;;2.23;;
22973;SDS011;11653;50.848;4.584;2023-09-18T04:29:12;5.73;;;2.40;;
22973;SDS011;11653;50.848;4.584;2023-09-18T04:31:37;3.13;;;1.90;;
22973;SDS011;11653;50.848;4.584;2023-09-18T04:34:03;3.60;;;2.30;;
22973;SDS011;11653;50.848;4.584;2023-09-18T04:36:29;3.50;;;2.37;;
22973;SDS011;11653;50.848;4.584;2023-09-18T04:38:55;3.43;;;2.07;;
22973;SDS011;11653;50.848;4.584;2023-09-18T04:41:20;3.73;;;1.93;;
22973;SDS011;11653;50.848;4.584;2023-09-18T04:43:46;6.47;;;1.93;;
22973;SDS011;11653;50.848;4.584;2023-09-18T04:46:12;2.77;;;2.27;;
22973;SDS011;11653;50.848;4.584;2023-09-18T04:48:38;4.13;;;1.70;;
22973;SDS011;11653;50.848;4.584;2023-09-18T04:51:03;4.27;;;2.20;;
22973;SDS011;11653;50.848;4.584;2023-09-18T04:53:30;3.20;;;1.83;;
22973;SDS011;11653;50.848;4.584;2023-09-18T04:55:57;2.60;;;1.77;;
22973;SDS011;11653;50.848;4.584;2023-09-18T04:58:23;2.63;;;1.80;;
22973;SDS011;11653;50.848;4.584;2023-09-18T05:00:58;5.63;;;2.00;;
22973;SDS011;11653;50.848;4.584;2023-09-18T05:03:25;6.03;;;2.17;;
22973;SDS011;11653;50.848;4.584;2023-09-18T05:05:54;4.77;;;1.97;;
22973;SDS011;11653;50.848;4.584;2023-09-18T05:08:20;5.50;;;1.90;;
22973;SDS011;11653;50.848;4.584;2023-09-18T05:10:46;4.53;;;2.17;;
22973;SDS011;11653;50.848;4.584;2023-09-18T05:13:12;3.80;;;1.90;;
22973;SDS011;11653;50.848;4.584;2023-09-18T05:15:38;3.13;;;1.73;;
22973;SDS011;11653;50.848;4.584;2023-09-18T05:18:04;4.77;;;2.10;;
22973;SDS011;11653;50.848;4.584;2023-09-18T05:20:30;4.50;;;2.00;;
22973;SDS011;11653;50.848;4.584;2023-09-18T05:22:56;4.23;;;2.03;;
22973;SDS011;11653;50.848;4.584;2023-09-18T05:25:24;4.30;;;1.90;;
22973;SDS011;11653;50.848;4.584;2023-09-18T05:27:51;3.40;;;1.70;;
22973;SDS011;11653;50.848;4.584;2023-09-18T05:30:23;2.97;;;2.07;;
22973;SDS011;11653;50.848;4.584;2023-09-18T05:32:53;5.83;;;3.07;;
22973;SDS011;11653;50.848;4.584;2023-09-18T05:35:19;2.87;;;1.60;;
22973;SDS011;11653;50.848;4.584;2023-09-18T05:37:48;8.60;;;2.07;;
22973;SDS011;11653;50.848;4.584;2023-09-18T05:40:16;4.23;;;2.20;;
22973;SDS011;11653;50.848;4.584;2023-09-18T05:42:42;6.50;;;2.00;;
22973;SDS011;11653;50.848;4.584;2023-09-18T05:45:09;7.93;;;1.97;;
22973;SDS011;11653;50.848;4.584;2023-09-18T05:47:35;6.23;;;2.30;;
22973;SDS011;11653;50.848;4.584;2023-09-18T05:50:02;4.77;;;2.00;;
22973;SDS011;11653;50.848;4.584;2023-09-18T05:52:32;5.57;;;2.10;;
22973;SDS011;11653;50.848;4.584;2023-09-18T05:54:59;4.77;;;2.20;;
22973;SDS011;11653;50.848;4.584;2023-09-18T05:57:25;3.67;;;2.10;;
22973;SDS011;11653;50.848;4.584;2023-09-18T05:59:52;4.93;;;2.40;;
22973;SDS011;11653;50.848;4.584;2023-09-18T06:02:19;3.97;;;2.10;;
22973;SDS011;11653;50.848;4.584;2023-09-18T06:04:45;4.57;;;1.93;;
22973;SDS011;11653;50.848;4.584;2023-09-18T06:07:11;3.13;;;2.20;;
22973;SDS011;11653;50.848;4.584;2023-09-18T06:09:38;3.90;;;1.80;;
22973;SDS011;11653;50.848;4.584;2023-09-18T06:12:04;4.80;;;2.00;;
22973;SDS011;11653;50.848;4.584;2023-09-18T06:14:30;5.20;;;2.13;;
22973;SDS011;11653;50.848;4.584;2023-09-18T06:16:56;4.40;;;1.93;;
22973;SDS011;11653;50.848;4.584;2023-09-18T06:19:22;5.50;;;1.90;;
22973;SDS011;11653;50.848;4.584;2023-09-18T06:21:48;3.20;;;1.73;;
22973;SDS011;11653;50.848;4.584;2023-09-18T06:24:13;5.80;;;2.10;;
22973;SDS011;11653;50.848;4.584;2023-09-18T06:26:39;3.23;;;2.10;;
22973;SDS011;11653;50.848;4.584;2023-09-18T06:29:05;3.87;;;1.90;;
22973;SDS011;11653;50.848;4.584;2023-09-18T06:31:31;4.93;;;1.83;;
22973;SDS011;11653;50.848;4.584;2023-09-18T06:33:57;4.53;;;1.70;;
22973;SDS011;11653;50.848;4.584;2023-09-18T06:36:23;2.97;;;1.93;;
22973;SDS011;11653;50.848;4.584;2023-09-18T06:38:51;2.90;;;1.50;;
22973;SDS011;11653;50.848;4.584;2023-09-18T06:41:17;2.57;;;1.70;;
22973;SDS011;11653;50.848;4.584;2023-09-18T06:43:42;5.60;;;1.90;;
22973;SDS011;11653;50.848;4.584;2023-09-18T06:46:12;6.67;;;2.10;;
22973;SDS011;11653;50.848;4.584;2023-09-18T06:48:37;5.50;;;2.27;;
22973;SDS011;11653;50.848;4.584;2023-09-18T06:51:03;5.80;;;1.80;;
22973;SDS011;11653;50.848;4.584;2023-09-18T06:53:28;6.70;;;1.87;;
22973;SDS011;11653;50.848;4.584;2023-09-18T06:55:54;4.57;;;1.87;;
22973;SDS011;11653;50.848;4.584;2023-09-18T06:58:20;4.00;;;1.97;;
22973;SDS011;11653;50.848;4.584;2023-09-18T07:00:46;2.50;;;1.83;;
22973;SDS011;11653;50.848;4.584;2023-09-18T07:03:15;5.93;;;2.30;;
22973;SDS011;11653;50.848;4.584;2023-09-18T07:05:41;5.33;;;2.03;;
22973;SDS011;11653;50.848;4.584;2023-09-18T07:08:08;4.67;;;1.93;;
22973;SDS011;11653;50.848;4.584;2023-09-18T07:10:36;4.33;;;1.93;;
22973;SDS011;11653;50.848;4.584;2023-09-18T07:13:03;6.37;;;1.97;;
22973;SDS011;11653;50.848;4.584;2023-09-18T07:15:28;3.73;;;2.27;;
22973;SDS011;11653;50.848;4.584;2023-09-18T07:17:57;4.23;;;2.00;;
22973;SDS011;11653;50.848;4.584;2023-09-18T07:20:22;4.60;;;2.27;;
22973;SDS011;11653;50.848;4.584;2023-09-18T07:22:49;6.63;;;2.03;;
22973;SDS011;11653;50.848;4.584;2023-09-18T07:25:15;5.53;;;2.07;;
22973;SDS011;11653;50.848;4.584;2023-09-18T07:27:41;4.60;;;2.00;;
22973;SDS011;11653;50.848;4.584;2023-09-18T07:30:12;11.17;;;3.20;;
22973;SDS011;11653;50.848;4.584;2023-09-18T07:32:42;7.10;;;2.27;;
22973;SDS011;11653;50.848;4.584;2023-09-18T07:35:08;5.03;;;2.93;;
22973;SDS011;11653;50.848;4.584;2023-09-18T07:37:35;3.70;;;2.50;;
22973;SDS011;11653;50.848;4.584;2023-09-18T07:40:07;5.93;;;3.70;;
22973;SDS011;11653;50.848;4.584;2023-09-18T07:42:33;4.20;;;1.87;;
22973;SDS011;11653;50.848;4.584;2023-09-18T07:44:59;7.73;;;2.10;;
22973;SDS011;11653;50.848;4.584;2023-09-18T07:47:25;4.57;;;2.00;;
22973;SDS011;11653;50.848;4.584;2023-09-18T07:49:51;4.67;;;2.03;;
22973;SDS011;11653;50.848;4.584;2023-09-18T07:52:17;4.77;;;1.80;;
22973;SDS011;11653;50.848;4.584;2023-09-18T07:54:43;4.32;;;1.90;;
22973;SDS011;11653;50.848;4.584;2023-09-18T07:57:09;5.88;;;1.80;;
22973;SDS011;11653;50.848;4.584;2023-09-18T07:59:38;3.40;;;1.77;;
22973;SDS011;11653;50.848;4.584;2023-09-18T08:02:07;4.43;;;1.90;;
22973;SDS011;11653;50.848;4.584;2023-09-18T08:04:34;6.30;;;1.63;;
22973;SDS011;11653;50.848;4.584;2023-09-18T08:07:00;2.92;;;1.45;;
22973;SDS011;11653;50.848;4.584;2023-09-18T08:09:26;5.50;;;1.50;;
22973;SDS011;11653;50.848;4.584;2023-09-18T08:11:55;4.00;;;1.55;;
22973;SDS011;11653;50.848;4.584;2023-09-18T08:14:21;4.55;;;1.52;;
22973;SDS011;11653;50.848;4.584;2023-09-18T08:16:47;5.82;;;1.73;;
22973;SDS011;11653;50.848;4.584;2023-09-18T08:19:16;4.50;;;1.38;;
22973;SDS011;11653;50.848;4.584;2023-09-18T08:21:42;5.22;;;1.77;;
22973;SDS011;11653;50.848;4.584;2023-09-18T08:24:08;4.25;;;1.75;;
22973;SDS011;11653;50.848;4.584;2023-09-18T08:26:33;6.57;;;1.75;;
22973;SDS011;11653;50.848;4.584;2023-09-18T08:28:59;2.75;;;1.60;;
22973;SDS011;11653;50.848;4.584;2023-09-18T08:31:25;2.47;;;1.52;;
22973;SDS011;11653;50.848;4.584;2023-09-18T08:33:52;5.60;;;2.00;;
22973;SDS011;11653;50.848;4.584;2023-09-18T08:36:18;5.25;;;1.92;;
22973;SDS011;11653;50.848;4.584;2023-09-18T08:38:44;10.65;;;2.92;;
22973;SDS011;11653;50.848;4.584;2023-09-18T08:41:11;6.15;;;1.80;;
22973;SDS011;11653;50.848;4.584;2023-09-18T08:43:39;7.25;;;2.28;;
22973;SDS011;11653;50.848;4.584;2023-09-18T08:46:09;7.25;;;2.00;;
22973;SDS011;11653;50.848;4.584;2023-09-18T08:48:35;5.60;;;1.88;;
22973;SDS011;11653;50.848;4.584;2023-09-18T08:51:02;9.77;;;2.28;;
22973;SDS011;11653;50.848;4.584;2023-09-18T08:53:32;7.50;;;2.38;;
22973;SDS011;11653;50.848;4.584;2023-09-18T08:56:00;6.82;;;2.83;;
22973;SDS011;11653;50.848;4.584;2023-09-18T08:58:36;10.77;;;3.13;;
22973;SDS011;11653;50.848;4.584;2023-09-18T09:01:05;5.10;;;2.40;;
22973;SDS011;11653;50.848;4.584;2023-09-18T09:03:35;4.47;;;2.30;;
22973;SDS011;11653;50.848;4.584;2023-09-18T09:06:01;4.97;;;2.50;;
22973;SDS011;11653;50.848;4.584;2023-09-18T09:08:28;7.33;;;2.50;;
22973;SDS011;11653;50.848;4.584;2023-09-18T09:10:54;6.63;;;2.50;;
22973;SDS011;11653;50.848;4.584;2023-09-18T09:13:19;5.70;;;2.40;;
22973;SDS011;11653;50.848;4.584;2023-09-18T09:15:51;6.07;;;2.33;;
22973;SDS011;11653;50.848;4.584;2023-09-18T09:18:20;5.53;;;2.63;;
22973;SDS011;11653;50.848;4.584;2023-09-18T09:21:02;6.97;;;2.77;;
22973;SDS011;11653;50.848;4.584;2023-09-18T09:23:44;7.53;;;2.43;;
22973;SDS011;11653;50.848;4.584;2023-09-18T09:26:14;5.23;;;2.97;;
22973;SDS011;11653;50.848;4.584;2023-09-18T09:28:42;8.87;;;3.10;;
22973;SDS011;11653;50.848;4.584;2023-09-18T09:31:09;7.43;;;2.57;;
22973;SDS011;11653;50.848;4.584;2023-09-18T09:33:40;5.80;;;2.83;;
22973;SDS011;11653;50.848;4.584;2023-09-18T09:36:18;5.53;;;2.70;;
22973;SDS011;11653;50.848;4.584;2023-09-18T09:38:44;7.50;;;3.33;;
22973;SDS011;11653;50.848;4.584;2023-09-18T09:41:13;8.93;;;3.60;;
22973;SDS011;11653;50.848;4.584;2023-09-18T09:43:41;6.57;;;3.00;;
22973;SDS011;11653;50.848;4.584;2023-09-18T09:46:14;7.67;;;2.93;;
22973;SDS011;11653;50.848;4.584;2023-09-18T09:48:57;9.37;;;3.07;;
22973;SDS011;11653;50.848;4.584;2023-09-18T09:51:29;4.67;;;2.90;;
22973;SDS011;11653;50.848;4.584;2023-09-18T09:53:55;5.73;;;3.10;;
22973;SDS011;11653;50.848;4.584;2023-09-18T09:56:39;6.73;;;2.83;;
22973;SDS011;11653;50.848;4.584;2023-09-18T09:59:05;9.50;;;3.43;;
22973;SDS011;11653;50.848;4.584;2023-09-18T10:01:34;5.47;;;2.93;;
22973;SDS011;11653;50.848;4.584;2023-09-18T10:04:04;6.00;;;2.73;;
22973;SDS011;11653;50.848;4.584;2023-09-18T10:06:32;6.77;;;3.20;;
22973;SDS011;11653;50.848;4.584;2023-09-18T10:09:00;9.63;;;3.53;;
22973;SDS011;11653;50.848;4.584;2023-09-18T10:11:27;4.60;;;2.70;;
22973;SDS011;11653;50.848;4.584;2023-09-18T10:13:59;4.50;;;2.60;;
22973;SDS011;11653;50.848;4.584;2023-09-18T10:16:28;5.20;;;2.80;;
22973;SDS011;11653;50.848;4.584;2023-09-18T10:19:07;5.83;;;2.80;;
22973;SDS011;11653;50.848;4.584;2023-09-18T10:24:39;5.20;;;2.77;;
22973;SDS011;11653;50.848;4.584;2023-09-18T10:27:06;7.17;;;2.17;;
22973;SDS011;11653;50.848;4.584;2023-09-18T10:29:34;6.35;;;2.63;;
22973;SDS011;11653;50.848;4.584;2023-09-18T10:32:05;4.70;;;2.63;;
22973;SDS011;11653;50.848;4.584;2023-09-18T10:34:34;4.47;;;2.22;;
22973;SDS011;11653;50.848;4.584;2023-09-18T10:37:02;4.93;;;2.60;;
22973;SDS011;11653;50.848;4.584;2023-09-18T10:39:34;5.55;;;2.92;;
22973;SDS011;11653;50.848;4.584;2023-09-18T10:42:01;4.17;;;2.57;;
22973;SDS011;11653;50.848;4.584;2023-09-18T10:44:30;3.80;;;2.87;;
22973;SDS011;11653;50.848;4.584;2023-09-18T10:46:59;6.90;;;3.30;;
22973;SDS011;11653;50.848;4.584;2023-09-18T10:49:27;5.17;;;2.43;;
22973;SDS011;11653;50.848;4.584;2023-09-18T10:51:54;4.83;;;2.33;;
22973;SDS011;11653;50.848;4.584;2023-09-18T10:54:21;6.10;;;2.15;;
22973;SDS011;11653;50.848;4.584;2023-09-18T10:56:49;5.68;;;2.67;;
22973;SDS011;11653;50.848;4.584;2023-09-18T10:59:16;5.15;;;1.92;;
22973;SDS011;11653;50.848;4.584;2023-09-18T11:01:42;4.50;;;2.63;;
22973;SDS011;11653;50.848;4.584;2023-09-18T11:04:09;6.50;;;2.17;;
22973;SDS011;11653;50.848;4.584;2023-09-18T11:09:23;5.55;;;2.58;;
22973;SDS011;11653;50.848;4.584;2023-09-18T11:14:23;5.53;;;2.85;;
22973;SDS011;11653;50.848;4.584;2023-09-18T11:17:05;4.40;;;2.08;;
22973;SDS011;11653;50.848;4.584;2023-09-18T11:19:31;4.28;;;1.80;;
22973;SDS011;11653;50.848;4.584;2023-09-18T11:22:06;6.45;;;1.83;;
22973;SDS011;11653;50.848;4.584;2023-09-18T11:24:37;3.10;;;1.50;;
22973;SDS011;11653;50.848;4.584;2023-09-18T11:27:03;5.57;;;2.17;;
22973;SDS011;11653;50.848;4.584;2023-09-18T11:29:28;4.07;;;1.83;;
22973;SDS011;11653;50.848;4.584;2023-09-18T11:31:57;4.93;;;1.80;;
22973;SDS011;11653;50.848;4.584;2023-09-18T11:34:26;4.82;;;1.77;;
22973;SDS011;11653;50.848;4.584;2023-09-18T11:36:56;5.18;;;1.60;;
22973;SDS011;11653;50.848;4.584;2023-09-18T11:42:18;8.75;;;1.88;;
22973;SDS011;11653;50.848;4.584;2023-09-18T11:44:46;7.60;;;2.10;;
22973;SDS011;11653;50.848;4.584;2023-09-18T11:47:16;4.97;;;2.03;;
22973;SDS011;11653;50.848;4.584;2023-09-18T11:49:50;3.10;;;1.90;;
22973;SDS011;11653;50.848;4.584;2023-09-18T11:55:40;5.15;;;2.17;;
22973;SDS011;11653;50.848;4.584;2023-09-18T11:58:06;3.88;;;1.75;;
22973;SDS011;11653;50.848;4.584;2023-09-18T12:00:34;5.05;;;2.00;;
22973;SDS011;11653;50.848;4.584;2023-09-18T12:03:22;2.63;;;1.42;;
22973;SDS011;11653;50.848;4.584;2023-09-18T12:05:55;6.75;;;2.10;;
22973;SDS011;11653;50.848;4.584;2023-09-18T12:08:26;3.72;;;1.70;;
22973;SDS011;11653;50.848;4.584;2023-09-18T12:10:55;3.78;;;1.67;;
22973;SDS011;11653;50.848;4.584;2023-09-18T12:13:21;3.42;;;1.73;;
22973;SDS011;11653;50.848;4.584;2023-09-18T12:15:49;4.63;;;1.70;;
22973;SDS011;11653;50.848;4.584;2023-09-18T12:18:22;3.08;;;1.50;;
22973;SDS011;11653;50.848;4.584;2023-09-18T12:20:49;3.70;;;1.40;;
22973;SDS011;11653;50.848;4.584;2023-09-18T12:23:16;3.65;;;1.50;;
22973;SDS011;11653;50.848;4.584;2023-09-18T12:25:46;4.45;;;1.52;;
22973;SDS011;11653;50.848;4.584;2023-09-18T12:28:14;1.95;;;1.30;;
22973;SDS011;11653;50.848;4.584;2023-09-18T12:30:41;3.10;;;1.52;;
22973;SDS011;11653;50.848;4.584;2023-09-18T12:33:11;4.30;;;1.95;;
22973;SDS011;11653;50.848;4.584;2023-09-18T12:35:39;11.43;;;2.03;;
22973;SDS011;11653;50.848;4.584;2023-09-18T12:38:15;3.05;;;1.80;;
22973;SDS011;11653;50.848;4.584;2023-09-18T12:40:44;4.80;;;2.15;;
22973;SDS011;11653;50.848;4.584;2023-09-18T12:43:11;3.55;;;1.77;;
22973;SDS011;11653;50.848;4.584;2023-09-18T12:45:40;2.28;;;1.63;;
22973;SDS011;11653;50.848;4.584;2023-09-18T12:48:07;7.07;;;1.90;;
22973;SDS011;11653;50.848;4.584;2023-09-18T12:50:34;2.65;;;1.70;;
22973;SDS011;11653;50.848;4.584;2023-09-18T12:53:06;5.40;;;1.83;;
22973;SDS011;11653;50.848;4.584;2023-09-18T12:55:36;2.80;;;1.65;;
22973;SDS011;11653;50.848;4.584;2023-09-18T12:58:03;3.30;;;1.63;;
22973;SDS011;11653;50.848;4.584;2023-09-18T13:00:32;3.92;;;1.73;;
22973;SDS011;11653;50.848;4.584;2023-09-18T13:02:59;4.70;;;1.80;;
22973;SDS011;11653;50.848;4.584;2023-09-18T13:05:25;2.53;;;1.90;;
22973;SDS011;11653;50.848;4.584;2023-09-18T13:07:51;3.67;;;1.90;;
22973;SDS011;11653;50.848;4.584;2023-09-18T13:10:18;2.92;;;2.00;;
22973;SDS011;11653;50.848;4.584;2023-09-18T13:12:51;3.08;;;1.92;;
22973;SDS011;11653;50.848;4.584;2023-09-18T13:17:55;3.67;;;2.00;;
22973;SDS011;11653;50.848;4.584;2023-09-18T13:20:25;3.60;;;2.13;;
22973;SDS011;11653;50.848;4.584;2023-09-18T13:22:54;4.25;;;2.00;;
22973;SDS011;11653;50.848;4.584;2023-09-18T13:25:22;2.92;;;1.73;;
22973;SDS011;11653;50.848;4.584;2023-09-18T13:27:49;3.80;;;1.85;;
22973;SDS011;11653;50.848;4.584;2023-09-18T13:30:15;3.72;;;1.80;;
22973;SDS011;11653;50.848;4.584;2023-09-18T13:32:46;3.78;;;2.08;;
22973;SDS011;11653;50.848;4.584;2023-09-18T13:35:18;3.90;;;1.70;;
22973;SDS011;11653;50.848;4.584;2023-09-18T13:37:44;6.43;;;2.00;;
22973;SDS011;11653;50.848;4.584;2023-09-18T13:40:11;2.15;;;1.50;;
22973;SDS011;11653;50.848;4.584;2023-09-18T13:42:40;3.92;;;1.98;;
22973;SDS011;11653;50.848;4.584;2023-09-18T13:45:06;6.10;;;2.00;;
22973;SDS011;11653;50.848;4.584;2023-09-18T13:47:32;5.63;;;1.77;;
22973;SDS011;11653;50.848;4.584;2023-09-18T13:50:00;4.93;;;1.70;;
22973;SDS011;11653;50.848;4.584;2023-09-18T13:52:27;5.85;;;1.75;;
22973;SDS011;11653;50.848;4.584;2023-09-18T13:54:55;3.70;;;1.83;;
22973;SDS011;11653;50.848;4.584;2023-09-18T13:57:21;8.25;;;1.75;;
22973;SDS011;11653;50.848;4.584;2023-09-18T13:59:47;2.83;;;1.67;;
22973;SDS011;11653;50.848;4.584;2023-09-18T14:02:14;5.25;;;1.50;;
22973;SDS011;11653;50.848;4.584;2023-09-18T14:04:44;8.18;;;2.10;;
22973;SDS011;11653;50.848;4.584;2023-09-18T14:07:10;3.63;;;1.95;;
22973;SDS011;11653;50.848;4.584;2023-09-18T14:09:37;3.15;;;1.67;;
22973;SDS011;11653;50.848;4.584;2023-09-18T14:12:03;3.75;;;1.85;;
22973;SDS011;11653;50.848;4.584;2023-09-18T14:14:32;4.57;;;1.83;;
22973;SDS011;11653;50.848;4.584;2023-09-18T14:16:58;4.28;;;1.58;;
22973;SDS011;11653;50.848;4.584;2023-09-18T14:19:24;4.97;;;1.70;;
22973;SDS011;11653;50.848;4.584;2023-09-18T14:21:50;8.93;;;2.17;;
22973;SDS011;11653;50.848;4.584;2023-09-18T14:24:17;5.57;;;2.10;;
22973;SDS011;11653;50.848;4.584;2023-09-18T14:26:47;13.43;;;4.78;;
22973;SDS011;11653;50.848;4.584;2023-09-18T14:29:14;5.65;;;1.70;;
22973;SDS011;11653;50.848;4.584;2023-09-18T14:31:40;6.95;;;1.88;;
22973;SDS011;11653;50.848;4.584;2023-09-18T14:34:06;4.70;;;1.77;;
22973;SDS011;11653;50.848;4.584;2023-09-18T14:36:32;2.67;;;1.60;;
22973;SDS011;11653;50.848;4.584;2023-09-18T14:39:01;6.38;;;2.10;;
22973;SDS011;11653;50.848;4.584;2023-09-18T14:41:40;6.57;;;2.30;;
22973;SDS011;11653;50.848;4.584;2023-09-18T14:44:07;2.97;;;1.80;;
22973;SDS011;11653;50.848;4.584;2023-09-18T14:46:36;7.97;;;2.13;;
22973;SDS011;11653;50.848;4.584;2023-09-18T14:49:06;9.03;;;2.13;;
22973;SDS011;11653;50.848;4.584;2023-09-18T14:51:33;5.77;;;1.90;;
22973;SDS011;11653;50.848;4.584;2023-09-18T14:53:59;4.53;;;1.97;;
22973;SDS011;11653;50.848;4.584;2023-09-18T14:56:26;3.73;;;2.00;;
22973;SDS011;11653;50.848;4.584;2023-09-18T14:58:52;6.67;;;1.70;;
22973;SDS011;11653;50.848;4.584;2023-09-18T15:01:20;12.30;;;3.63;;
22973;SDS011;11653;50.848;4.584;2023-09-18T15:03:46;7.77;;;3.20;;
22973;SDS011;11653;50.848;4.584;2023-09-18T15:06:13;16.63;;;3.77;;
22973;SDS011;11653;50.848;4.584;2023-09-18T15:08:39;13.40;;;4.13;;